sensor_id;sensor_type;location;lat;lon;timestamp;pressure;altitude;pressure_sealevel;temperature;humidity
51439;BME280;38816;51.142;-0.974;2024-03-17T00:01:20;76735.53;;;-142.70;100.00
51439;BME280;38816;51.142;-0.974;2024-03-17T00:03:45;76727.66;;;-142.70;100.00
51439;BME280;38816;51.142;-0.974;2024-03-17T00:06:11;76723.72;;;-142.70;100.00
51439;BME280;38816;51.142;-0.974;2024-03-17T00:08:37;76717.81;;;-142.70;100.00
51439;BME280;38816;51.142;-0.974;2024-03-17T00:11:03;76711.88;;;-142.70;100.00
51439;BME280;38816;51.142;-0.974;2024-03-17T00:13:28;76709.91;;;-142.70;100.00
51439;BME280;38816;51.142;-0.974;2024-03-17T00:15:54;76709.91;;;-142.70;100.00
51439;BME280;38816;51.142;-0.974;2024-03-17T00:18:19;76707.94;;;-142.70;100.00
51439;BME280;38816;51.142;-0.974;2024-03-17T00:20:45;76700.06;;;-142.70;100.00
51439;BME280;38816;51.142;-0.974;2024-03-17T00:23:10;76704.00;;;-142.70;100.00
51439;BME280;38816;51.142;-0.974;2024-03-17T00:25:38;76698.09;;;-142.70;100.00
51439;BME280;38816;51.142;-0.974;2024-03-17T00:28:04;76694.16;;;-142.70;100.00
51439;BME280;38816;51.142;-0.974;2024-03-17T00:30:30;76696.13;;;-142.70;100.00
51439;BME280;38816;51.142;-0.974;2024-03-17T00:32:56;76686.25;;;-142.70;100.00
51439;BME280;38816;51.142;-0.974;2024-03-17T00:35:23;76694.16;;;-142.70;100.00
51439;BME280;38816;51.142;-0.974;2024-03-17T00:37:49;76684.28;;;-142.70;100.00
51439;BME280;38816;51.142;-0.974;2024-03-17T00:40:16;76680.34;;;-142.70;100.00
51439;BME280;38816;51.142;-0.974;2024-03-17T00:42:44;76680.34;;;-142.70;100.00
51439;BME280;38816;51.142;-0.974;2024-03-17T00:45:11;76682.31;;;-142.70;100.00
51439;BME280;38816;51.142;-0.974;2024-03-17T00:47:37;76682.31;;;-142.70;100.00
51439;BME280;38816;51.142;-0.974;2024-03-17T00:50:03;76682.31;;;-142.70;100.00
51439;BME280;38816;51.142;-0.974;2024-03-17T00:52:30;76678.38;;;-142.70;100.00
51439;BME280;38816;51.142;-0.974;2024-03-17T00:54:56;76678.38;;;-142.70;100.00
51439;BME280;38816;51.142;-0.974;2024-03-17T00:57:21;76676.41;;;-142.70;100.00
51439;BME280;38816;51.142;-0.974;2024-03-17T00:59:47;76666.56;;;-142.70;100.00
51439;BME280;38816;51.142;-0.974;2024-03-17T01:02:14;76660.63;;;-142.70;100.00
51439;BME280;38816;51.142;-0.974;2024-03-17T01:04:42;76660.63;;;-142.70;100.00
51439;BME280;38816;51.142;-0.974;2024-03-17T01:07:08;76664.59;;;-142.70;100.00
51439;BME280;38816;51.142;-0.974;2024-03-17T01:09:34;76664.59;;;-142.70;100.00
51439;BME280;38816;51.142;-0.974;2024-03-17T01:12:00;76656.69;;;-142.70;100.00
51439;BME280;38816;51.142;-0.974;2024-03-17T01:14:26;76652.75;;;-142.70;100.00
51439;BME280;38816;51.142;-0.974;2024-03-17T01:16:52;76648.81;;;-142.70;100.00
51439;BME280;38816;51.142;-0.974;2024-03-17T01:19:20;76644.88;;;-142.70;100.00
51439;BME280;38816;51.142;-0.974;2024-03-17T01:21:45;76640.94;;;-142.70;100.00
51439;BME280;38816;51.142;-0.974;2024-03-17T01:24:11;76629.09;;;-142.70;100.00
51439;BME280;38816;51.142;-0.974;2024-03-17T01:26:36;76631.06;;;-142.70;100.00
51439;BME280;38816;51.142;-0.974;2024-03-17T01:29:02;76629.09;;;-142.70;100.00
51439;BME280;38816;51.142;-0.974;2024-03-17T01:31:28;76625.16;;;-142.70;100.00
51439;BME280;38816;51.142;-0.974;2024-03-17T01:33:56;76621.22;;;-142.70;100.00
51439;BME280;38816;51.142;-0.974;2024-03-17T01:36:22;76613.34;;;-142.70;100.00
51439;BME280;38816;51.142;-0.974;2024-03-17T01:38:47;76611.38;;;-142.70;100.00
51439;BME280;38816;51.142;-0.974;2024-03-17T01:41:13;76605.44;;;-142.70;100.00
51439;BME280;38816;51.142;-0.974;2024-03-17T01:43:39;76597.56;;;-142.70;100.00
51439;BME280;38816;51.142;-0.974;2024-03-17T01:46:06;76593.63;;;-142.70;100.00
51439;BME280;38816;51.142;-0.974;2024-03-17T01:48:33;76601.50;;;-142.70;100.00
51439;BME280;38816;51.142;-0.974;2024-03-17T01:50:59;76599.53;;;-142.70;100.00
51439;BME280;38816;51.142;-0.974;2024-03-17T01:53:25;76599.53;;;-142.70;100.00
51439;BME280;38816;51.142;-0.974;2024-03-17T01:55:51;76593.63;;;-142.70;100.00
51439;BME280;38816;51.142;-0.974;2024-03-17T01:58:20;76593.63;;;-142.70;100.00
51439;BME280;38816;51.142;-0.974;2024-03-17T02:00:46;76581.78;;;-142.70;100.00
51439;BME280;38816;51.142;-0.974;2024-03-17T02:03:12;76581.78;;;-142.70;100.00
51439;BME280;38816;51.142;-0.974;2024-03-17T02:05:38;76581.78;;;-142.70;100.00
51439;BME280;38816;51.142;-0.974;2024-03-17T02:08:05;76581.78;;;-142.70;100.00
51439;BME280;38816;51.142;-0.974;2024-03-17T02:10:30;76579.81;;;-142.70;100.00
51439;BME280;38816;51.142;-0.974;2024-03-17T02:12:56;76569.97;;;-142.70;100.00
51439;BME280;38816;51.142;-0.974;2024-03-17T02:15:22;76568.00;;;-142.70;100.00
51439;BME280;38816;51.142;-0.974;2024-03-17T02:17:47;76566.03;;;-142.70;100.00
51439;BME280;38816;51.142;-0.974;2024-03-17T02:20:13;76558.16;;;-142.70;100.00
51439;BME280;38816;51.142;-0.974;2024-03-17T02:22:39;76558.16;;;-142.70;100.00
51439;BME280;38816;51.142;-0.974;2024-03-17T02:25:05;76554.19;;;-142.70;100.00
51439;BME280;38816;51.142;-0.974;2024-03-17T02:27:35;76550.25;;;-142.70;100.00
51439;BME280;38816;51.142;-0.974;2024-03-17T02:30:01;76546.31;;;-142.70;100.00
51439;BME280;38816;51.142;-0.974;2024-03-17T02:32:27;76550.25;;;-142.70;100.00
51439;BME280;38816;51.142;-0.974;2024-03-17T02:34:53;76542.38;;;-142.70;100.00
51439;BME280;38816;51.142;-0.974;2024-03-17T02:37:19;76546.31;;;-142.70;100.00
51439;BME280;38816;51.142;-0.974;2024-03-17T02:39:44;76550.25;;;-142.70;100.00
51439;BME280;38816;51.142;-0.974;2024-03-17T02:42:10;76542.38;;;-142.70;100.00
51439;BME280;38816;51.142;-0.974;2024-03-17T02:44:37;76544.34;;;-142.70;100.00
51439;BME280;38816;51.142;-0.974;2024-03-17T02:47:04;76540.41;;;-142.70;100.00
51439;BME280;38816;51.142;-0.974;2024-03-17T02:49:31;76542.38;;;-142.70;100.00
51439;BME280;38816;51.142;-0.974;2024-03-17T02:52:06;76546.31;;;-142.70;100.00
51439;BME280;38816;51.142;-0.974;2024-03-17T02:54:32;76538.44;;;-142.70;100.00
51439;BME280;38816;51.142;-0.974;2024-03-17T02:56:58;76530.56;;;-142.70;100.00
51439;BME280;38816;51.142;-0.974;2024-03-17T02:59:24;76534.50;;;-142.70;100.00
51439;BME280;38816;51.142;-0.974;2024-03-17T03:01:50;76526.59;;;-142.70;100.00
51439;BME280;38816;51.142;-0.974;2024-03-17T03:04:16;76528.59;;;-142.70;100.00
51439;BME280;38816;51.142;-0.974;2024-03-17T03:06:41;76526.59;;;-142.70;100.00
51439;BME280;38816;51.142;-0.974;2024-03-17T03:09:07;76526.59;;;-142.70;100.00
51439;BME280;38816;51.142;-0.974;2024-03-17T03:11:38;76514.78;;;-142.70;100.00
51439;BME280;38816;51.142;-0.974;2024-03-17T03:14:05;76520.69;;;-142.70;100.00
51439;BME280;38816;51.142;-0.974;2024-03-17T03:16:30;76522.66;;;-142.70;100.00
51439;BME280;38816;51.142;-0.974;2024-03-17T03:18:56;76534.50;;;-142.70;100.00
51439;BME280;38816;51.142;-0.974;2024-03-17T03:21:21;76530.56;;;-142.70;100.00
51439;BME280;38816;51.142;-0.974;2024-03-17T03:23:47;76540.41;;;-142.70;100.00
51439;BME280;38816;51.142;-0.974;2024-03-17T03:26:13;76542.38;;;-142.70;100.00
51439;BME280;38816;51.142;-0.974;2024-03-17T03:28:38;76538.44;;;-142.70;100.00
51439;BME280;38816;51.142;-0.974;2024-03-17T03:31:10;76532.53;;;-142.70;100.00
51439;BME280;38816;51.142;-0.974;2024-03-17T03:33:39;76528.59;;;-142.70;100.00
51439;BME280;38816;51.142;-0.974;2024-03-17T03:36:13;76524.63;;;-142.70;100.00
51439;BME280;38816;51.142;-0.974;2024-03-17T03:38:39;76524.63;;;-142.70;100.00
51439;BME280;38816;51.142;-0.974;2024-03-17T03:41:13;76514.78;;;-142.70;100.00
51439;BME280;38816;51.142;-0.974;2024-03-17T03:43:38;76512.81;;;-142.70;100.00
51439;BME280;38816;51.142;-0.974;2024-03-17T03:46:04;76508.88;;;-142.70;100.00
51439;BME280;38816;51.142;-0.974;2024-03-17T03:48:31;76506.91;;;-142.70;100.00
51439;BME280;38816;51.142;-0.974;2024-03-17T03:50:56;76501.00;;;-142.70;100.00
51439;BME280;38816;51.142;-0.974;2024-03-17T03:53:22;76499.00;;;-142.70;100.00
51439;BME280;38816;51.142;-0.974;2024-03-17T03:55:48;76497.03;;;-142.70;100.00
51439;BME280;38816;51.142;-0.974;2024-03-17T03:58:14;76495.06;;;-142.70;100.00
51439;BME280;38816;51.142;-0.974;2024-03-17T04:00:40;76495.06;;;-142.70;100.00
51439;BME280;38816;51.142;-0.974;2024-03-17T04:03:08;76493.09;;;-142.70;100.00
51439;BME280;38816;51.142;-0.974;2024-03-17T04:05:37;76489.16;;;-142.70;100.00
51439;BME280;38816;51.142;-0.974;2024-03-17T04:08:05;76479.31;;;-142.70;100.00
51439;BME280;38816;51.142;-0.974;2024-03-17T04:10:31;76483.25;;;-142.70;100.00
51439;BME280;38816;51.142;-0.974;2024-03-17T04:12:56;76483.25;;;-142.70;100.00
51439;BME280;38816;51.142;-0.974;2024-03-17T04:15:22;76475.38;;;-142.70;100.00
51439;BME280;38816;51.142;-0.974;2024-03-17T04:17:48;76479.31;;;-142.70;100.00
51439;BME280;38816;51.142;-0.974;2024-03-17T04:20:17;76475.38;;;-142.70;100.00
51439;BME280;38816;51.142;-0.974;2024-03-17T04:22:43;76479.31;;;-142.70;100.00
51439;BME280;38816;51.142;-0.974;2024-03-17T04:25:09;76477.34;;;-142.70;100.00
51439;BME280;38816;51.142;-0.974;2024-03-17T04:27:35;76481.28;;;-142.70;100.00
51439;BME280;38816;51.142;-0.974;2024-03-17T04:30:00;76475.38;;;-142.70;100.00
51439;BME280;38816;51.142;-0.974;2024-03-17T04:32:26;76471.41;;;-142.70;100.00
51439;BME280;38816;51.142;-0.974;2024-03-17T04:34:56;76469.44;;;-142.70;100.00
51439;BME280;38816;51.142;-0.974;2024-03-17T04:37:21;76463.53;;;-142.70;100.00
51439;BME280;38816;51.142;-0.974;2024-03-17T04:39:48;76459.59;;;-142.70;100.00
51439;BME280;38816;51.142;-0.974;2024-03-17T04:42:16;76463.53;;;-142.70;100.00
51439;BME280;38816;51.142;-0.974;2024-03-17T04:44:45;76467.47;;;-142.70;100.00
51439;BME280;38816;51.142;-0.974;2024-03-17T04:47:11;76465.50;;;-142.70;100.00
51439;BME280;38816;51.142;-0.974;2024-03-17T04:49:39;76469.44;;;-142.70;100.00
51439;BME280;38816;51.142;-0.974;2024-03-17T04:52:05;76459.59;;;-142.70;100.00
51439;BME280;38816;51.142;-0.974;2024-03-17T04:54:34;76463.53;;;-142.70;100.00
51439;BME280;38816;51.142;-0.974;2024-03-17T04:57:00;76465.50;;;-142.70;100.00
51439;BME280;38816;51.142;-0.974;2024-03-17T04:59:29;76465.50;;;-142.70;100.00
51439;BME280;38816;51.142;-0.974;2024-03-17T05:01:55;76469.44;;;-142.70;100.00
51439;BME280;38816;51.142;-0.974;2024-03-17T05:04:21;76467.47;;;-142.70;100.00
51439;BME280;38816;51.142;-0.974;2024-03-17T05:06:48;76469.44;;;-142.70;100.00
51439;BME280;38816;51.142;-0.974;2024-03-17T05:09:18;76475.38;;;-142.70;100.00
51439;BME280;38816;51.142;-0.974;2024-03-17T05:11:44;76479.31;;;-142.70;100.00
51439;BME280;38816;51.142;-0.974;2024-03-17T05:14:10;76483.25;;;-142.70;100.00
51439;BME280;38816;51.142;-0.974;2024-03-17T05:16:36;76485.22;;;-142.70;100.00
51439;BME280;38816;51.142;-0.974;2024-03-17T05:19:02;76491.13;;;-142.70;100.00
51439;BME280;38816;51.142;-0.974;2024-03-17T05:21:28;76489.16;;;-142.70;100.00
51439;BME280;38816;51.142;-0.974;2024-03-17T05:23:56;76489.16;;;-142.70;100.00
51439;BME280;38816;51.142;-0.974;2024-03-17T05:26:23;76485.22;;;-142.70;100.00
51439;BME280;38816;51.142;-0.974;2024-03-17T05:28:49;76487.19;;;-142.70;100.00
51439;BME280;38816;51.142;-0.974;2024-03-17T05:31:15;76481.28;;;-142.70;100.00
51439;BME280;38816;51.142;-0.974;2024-03-17T05:33:43;76487.19;;;-142.70;100.00
51439;BME280;38816;51.142;-0.974;2024-03-17T05:36:08;76485.22;;;-142.70;100.00
51439;BME280;38816;51.142;-0.974;2024-03-17T05:38:34;76481.28;;;-142.70;100.00
51439;BME280;38816;51.142;-0.974;2024-03-17T05:41:08;76475.38;;;-142.70;100.00
51439;BME280;38816;51.142;-0.974;2024-03-17T05:43:35;76471.41;;;-142.70;100.00
51439;BME280;38816;51.142;-0.974;2024-03-17T05:46:02;76475.38;;;-142.70;100.00
51439;BME280;38816;51.142;-0.974;2024-03-17T05:48:28;76469.44;;;-142.70;100.00
51439;BME280;38816;51.142;-0.974;2024-03-17T05:50:54;76467.47;;;-142.70;100.00
51439;BME280;38816;51.142;-0.974;2024-03-17T05:53:21;76465.50;;;-142.70;100.00
51439;BME280;38816;51.142;-0.974;2024-03-17T05:55:49;76459.59;;;-142.70;100.00
51439;BME280;38816;51.142;-0.974;2024-03-17T05:58:15;76459.59;;;-142.70;100.00
51439;BME280;38816;51.142;-0.974;2024-03-17T06:00:41;76455.66;;;-142.70;100.00
51439;BME280;38816;51.142;-0.974;2024-03-17T06:03:08;76453.69;;;-142.70;100.00
51439;BME280;38816;51.142;-0.974;2024-03-17T06:05:38;76447.78;;;-142.70;100.00
51439;BME280;38816;51.142;-0.974;2024-03-17T06:08:06;76447.78;;;-142.70;100.00
51439;BME280;38816;51.142;-0.974;2024-03-17T06:10:35;76445.81;;;-142.70;100.00
51439;BME280;38816;51.142;-0.974;2024-03-17T06:13:01;76449.75;;;-142.70;100.00
51439;BME280;38816;51.142;-0.974;2024-03-17T06:15:27;76445.81;;;-142.70;100.00
51439;BME280;38816;51.142;-0.974;2024-03-17T06:17:53;76443.81;;;-142.70;100.00
51439;BME280;38816;51.142;-0.974;2024-03-17T06:20:24;76445.81;;;-142.70;100.00
51439;BME280;38816;51.142;-0.974;2024-03-17T06:22:52;76443.81;;;-142.70;100.00
51439;BME280;38816;51.142;-0.974;2024-03-17T06:25:18;76445.81;;;-142.70;100.00
51439;BME280;38816;51.142;-0.974;2024-03-17T06:27:43;76439.88;;;-142.70;100.00
51439;BME280;38816;51.142;-0.974;2024-03-17T06:30:12;76445.81;;;-142.70;100.00
51439;BME280;38816;51.142;-0.974;2024-03-17T06:32:41;76439.88;;;-142.70;100.00
51439;BME280;38816;51.142;-0.974;2024-03-17T06:35:13;76435.94;;;-142.70;100.00
51439;BME280;38816;51.142;-0.974;2024-03-17T06:37:43;76435.94;;;-142.70;100.00
51439;BME280;38816;51.142;-0.974;2024-03-17T06:40:13;76433.97;;;-142.70;100.00
51439;BME280;38816;51.142;-0.974;2024-03-17T06:42:38;76432.00;;;-142.70;100.00
51439;BME280;38816;51.142;-0.974;2024-03-17T06:45:05;76428.06;;;-142.70;100.00
51439;BME280;38816;51.142;-0.974;2024-03-17T06:47:31;76424.13;;;-142.70;100.00
51439;BME280;38816;51.142;-0.974;2024-03-17T06:49:56;76428.06;;;-142.70;100.00
51439;BME280;38816;51.142;-0.974;2024-03-17T06:52:22;76418.22;;;-142.70;100.00
51439;BME280;38816;51.142;-0.974;2024-03-17T06:54:47;76416.22;;;-142.70;100.00
51439;BME280;38816;51.142;-0.974;2024-03-17T06:57:16;76420.19;;;-142.70;100.00
51439;BME280;38816;51.142;-0.974;2024-03-17T06:59:50;76412.28;;;-142.70;100.00
51439;BME280;38816;51.142;-0.974;2024-03-17T07:02:16;76412.28;;;-142.70;100.00
51439;BME280;38816;51.142;-0.974;2024-03-17T07:04:47;76406.38;;;-142.70;100.00
51439;BME280;38816;51.142;-0.974;2024-03-17T07:07:16;76406.38;;;-142.70;100.00
51439;BME280;38816;51.142;-0.974;2024-03-17T07:09:41;76404.41;;;-142.70;100.00
51439;BME280;38816;51.142;-0.974;2024-03-17T07:12:07;76406.38;;;-142.70;100.00
51439;BME280;38816;51.142;-0.974;2024-03-17T07:14:33;76404.41;;;-142.70;100.00
51439;BME280;38816;51.142;-0.974;2024-03-17T07:16:59;76406.38;;;-142.70;100.00
51439;BME280;38816;51.142;-0.974;2024-03-17T07:19:24;76404.41;;;-142.70;100.00
51439;BME280;38816;51.142;-0.974;2024-03-17T07:21:50;76402.44;;;-142.70;100.00
51439;BME280;38816;51.142;-0.974;2024-03-17T07:24:15;76404.41;;;-142.70;100.00
51439;BME280;38816;51.142;-0.974;2024-03-17T07:26:41;76400.47;;;-142.70;100.00
51439;BME280;38816;51.142;-0.974;2024-03-17T07:29:09;76398.50;;;-142.70;100.00
51439;BME280;38816;51.142;-0.974;2024-03-17T07:31:35;76390.63;;;-142.70;100.00
51439;BME280;38816;51.142;-0.974;2024-03-17T07:34:01;76388.66;;;-142.70;100.00
51439;BME280;38816;51.142;-0.974;2024-03-17T07:36:26;76378.78;;;-142.70;100.00
51439;BME280;38816;51.142;-0.974;2024-03-17T07:38:52;76374.84;;;-142.70;100.00
51439;BME280;38816;51.142;-0.974;2024-03-17T07:41:17;76368.94;;;-142.70;100.00
51439;BME280;38816;51.142;-0.974;2024-03-17T07:43:44;76359.06;;;-142.70;100.00
51439;BME280;38816;51.142;-0.974;2024-03-17T07:46:11;76357.09;;;-142.70;100.00
51439;BME280;38816;51.142;-0.974;2024-03-17T07:48:38;76355.13;;;-142.70;100.00
51439;BME280;38816;51.142;-0.974;2024-03-17T07:51:12;76353.16;;;-142.70;100.00
51439;BME280;38816;51.142;-0.974;2024-03-17T07:53:39;76345.28;;;-142.70;100.00
51439;BME280;38816;51.142;-0.974;2024-03-17T07:56:12;76341.34;;;-142.70;100.00
51439;BME280;38816;51.142;-0.974;2024-03-17T07:58:41;76337.41;;;-142.70;100.00
51439;BME280;38816;51.142;-0.974;2024-03-17T08:01:09;76329.50;;;-142.70;100.00
51439;BME280;38816;51.142;-0.974;2024-03-17T08:03:36;76327.53;;;-142.70;100.00
51439;BME280;38816;51.142;-0.974;2024-03-17T08:06:03;76323.59;;;-142.70;100.00
51439;BME280;38816;51.142;-0.974;2024-03-17T08:08:30;76319.66;;;-142.70;100.00
51439;BME280;38816;51.142;-0.974;2024-03-17T08:10:56;76313.75;;;-142.70;100.00
51439;BME280;38816;51.142;-0.974;2024-03-17T08:13:22;76313.75;;;-142.70;100.00
51439;BME280;38816;51.142;-0.974;2024-03-17T08:15:56;76309.81;;;-142.70;100.00
51439;BME280;38816;51.142;-0.974;2024-03-17T08:18:21;76301.94;;;-142.70;100.00
51439;BME280;38816;51.142;-0.974;2024-03-17T08:20:47;76301.94;;;-142.70;100.00
51439;BME280;38816;51.142;-0.974;2024-03-17T08:23:13;76299.94;;;-142.70;100.00
51439;BME280;38816;51.142;-0.974;2024-03-17T08:25:39;76303.91;;;-142.70;100.00
51439;BME280;38816;51.142;-0.974;2024-03-17T08:28:05;76301.94;;;-142.70;100.00
51439;BME280;38816;51.142;-0.974;2024-03-17T08:30:32;76301.94;;;-142.70;100.00
51439;BME280;38816;51.142;-0.974;2024-03-17T08:32:58;76296.00;;;-142.70;100.00
51439;BME280;38816;51.142;-0.974;2024-03-17T08:35:24;76299.94;;;-142.70;100.00
51439;BME280;38816;51.142;-0.974;2024-03-17T08:37:49;76286.16;;;-142.70;100.00
51439;BME280;38816;51.142;-0.974;2024-03-17T08:40:17;76284.19;;;-142.70;100.00
51439;BME280;38816;51.142;-0.974;2024-03-17T08:42:43;76278.28;;;-142.70;100.00
51439;BME280;38816;51.142;-0.974;2024-03-17T08:45:11;76274.34;;;-142.70;100.00
51439;BME280;38816;51.142;-0.974;2024-03-17T08:47:37;76274.34;;;-142.70;100.00
51439;BME280;38816;51.142;-0.974;2024-03-17T08:50:02;76262.50;;;-142.70;100.00
51439;BME280;38816;51.142;-0.974;2024-03-17T08:52:32;76254.63;;;-142.70;100.00
51439;BME280;38816;51.142;-0.974;2024-03-17T08:54:58;76250.69;;;-142.70;100.00
51439;BME280;38816;51.142;-0.974;2024-03-17T08:57:24;76242.78;;;-142.70;100.00
51439;BME280;38816;51.142;-0.974;2024-03-17T08:59:50;76234.91;;;-142.70;100.00
51439;BME280;38816;51.142;-0.974;2024-03-17T09:02:18;76230.97;;;-142.70;100.00
51439;BME280;38816;51.142;-0.974;2024-03-17T09:04:46;76217.19;;;-142.70;100.00
51439;BME280;38816;51.142;-0.974;2024-03-17T09:07:12;76205.34;;;-142.70;100.00
51439;BME280;38816;51.142;-0.974;2024-03-17T09:09:38;76203.38;;;-142.70;100.00
51439;BME280;38816;51.142;-0.974;2024-03-17T09:12:04;76205.34;;;-142.70;100.00
51439;BME280;38816;51.142;-0.974;2024-03-17T09:14:30;76199.44;;;-142.70;100.00
51439;BME280;38816;51.142;-0.974;2024-03-17T09:16:57;76193.53;;;-142.70;100.00
51439;BME280;38816;51.142;-0.974;2024-03-17T09:19:23;76187.63;;;-142.70;100.00
51439;BME280;38816;51.142;-0.974;2024-03-17T09:21:49;76187.63;;;-142.70;100.00
51439;BME280;38816;51.142;-0.974;2024-03-17T09:24:14;76175.78;;;-142.70;100.00
51439;BME280;38816;51.142;-0.974;2024-03-17T09:26:40;76171.84;;;-142.70;100.00
51439;BME280;38816;51.142;-0.974;2024-03-17T09:29:05;76156.09;;;-142.70;100.00
51439;BME280;38816;51.142;-0.974;2024-03-17T09:31:31;76152.13;;;-142.70;100.00
51439;BME280;38816;51.142;-0.974;2024-03-17T09:33:59;76138.34;;;-142.70;100.00
51439;BME280;38816;51.142;-0.974;2024-03-17T09:36:25;76112.72;;;-142.70;100.00
51439;BME280;38816;51.142;-0.974;2024-03-17T09:38:50;76106.81;;;-142.70;100.00
51439;BME280;38816;51.142;-0.974;2024-03-17T09:41:22;76106.81;;;-142.70;100.00
51439;BME280;38816;51.142;-0.974;2024-03-17T09:43:50;76096.97;;;-142.70;100.00
51439;BME280;38816;51.142;-0.974;2024-03-17T09:46:19;76089.06;;;-142.70;100.00
51439;BME280;38816;51.142;-0.974;2024-03-17T09:48:44;76081.19;;;-142.70;100.00
51439;BME280;38816;51.142;-0.974;2024-03-17T09:51:18;76057.53;;;-142.70;100.00
51439;BME280;38816;51.142;-0.974;2024-03-17T09:53:45;76055.56;;;-142.70;100.00
51439;BME280;38816;51.142;-0.974;2024-03-17T09:56:13;76057.53;;;-142.70;100.00
51439;BME280;38816;51.142;-0.974;2024-03-17T09:58:40;76061.47;;;-142.70;100.00
51439;BME280;38816;51.142;-0.974;2024-03-17T10:01:06;76059.50;;;-142.70;100.00
51439;BME280;38816;51.142;-0.974;2024-03-17T10:03:51;76057.53;;;-142.70;100.00
51439;BME280;38816;51.142;-0.974;2024-03-17T10:06:26;76065.44;;;-142.70;100.00
51439;BME280;38816;51.142;-0.974;2024-03-17T10:08:53;76071.34;;;-142.70;100.00
51439;BME280;38816;51.142;-0.974;2024-03-17T10:11:20;76077.25;;;-142.70;100.00
51439;BME280;38816;51.142;-0.974;2024-03-17T10:13:59;76075.28;;;-142.70;100.00
51439;BME280;38816;51.142;-0.974;2024-03-17T10:16:26;76075.28;;;-142.70;100.00
51439;BME280;38816;51.142;-0.974;2024-03-17T10:19:08;76089.06;;;-142.70;100.00
51439;BME280;38816;51.142;-0.974;2024-03-17T10:21:37;76098.94;;;-142.70;100.00
51439;BME280;38816;51.142;-0.974;2024-03-17T10:26:43;76128.50;;;-142.70;100.00
51439;BME280;38816;51.142;-0.974;2024-03-17T10:31:59;76130.47;;;-142.70;100.00
51439;BME280;38816;51.142;-0.974;2024-03-17T10:34:28;76130.47;;;-142.70;100.00
51439;BME280;38816;51.142;-0.974;2024-03-17T10:37:16;76126.53;;;-142.70;100.00
51439;BME280;38816;51.142;-0.974;2024-03-17T10:39:50;76124.53;;;-142.70;100.00
51439;BME280;38816;51.142;-0.974;2024-03-17T10:42:24;76108.78;;;-142.70;100.00
51439;BME280;38816;51.142;-0.974;2024-03-17T10:44:49;76073.31;;;-142.70;100.00
51439;BME280;38816;51.142;-0.974;2024-03-17T10:47:26;76029.94;;;-142.70;100.00
51439;BME280;38816;51.142;-0.974;2024-03-17T10:49:53;76018.13;;;-142.70;100.00
51439;BME280;38816;51.142;-0.974;2024-03-17T10:52:19;76006.31;;;-142.70;100.00
51439;BME280;38816;51.142;-0.974;2024-03-17T10:54:50;75986.59;;;-142.70;100.00
51439;BME280;38816;51.142;-0.974;2024-03-17T11:00:00;75976.75;;;-142.70;100.00
51439;BME280;38816;51.142;-0.974;2024-03-17T11:02:29;75974.78;;;-142.70;100.00
51439;BME280;38816;51.142;-0.974;2024-03-17T11:05:03;75976.75;;;-142.70;100.00
51439;BME280;38816;51.142;-0.974;2024-03-17T11:07:29;75964.91;;;-142.70;100.00
51439;BME280;38816;51.142;-0.974;2024-03-17T11:09:57;75962.94;;;-142.70;100.00
51439;BME280;38816;51.142;-0.974;2024-03-17T11:23:28;75939.28;;;-142.70;100.00
51439;BME280;38816;51.142;-0.974;2024-03-17T11:25:54;75929.44;;;-142.70;100.00
51439;BME280;38816;51.142;-0.974;2024-03-17T11:31:33;75927.47;;;-142.70;100.00
51439;BME280;38816;51.142;-0.974;2024-03-17T11:33:59;75917.63;;;-142.70;100.00
51439;BME280;38816;51.142;-0.974;2024-03-17T11:39:08;75856.53;;;-142.70;100.00
51439;BME280;38816;51.142;-0.974;2024-03-17T11:41:41;75842.72;;;-142.70;100.00
51439;BME280;38816;51.142;-0.974;2024-03-17T11:47:01;75823.03;;;-142.70;100.00
51439;BME280;38816;51.142;-0.974;2024-03-17T11:49:39;75838.78;;;-142.70;100.00
51439;BME280;38816;51.142;-0.974;2024-03-17T11:52:09;75840.75;;;-142.70;100.00
51439;BME280;38816;51.142;-0.974;2024-03-17T11:54:37;75842.72;;;-142.70;100.00
51439;BME280;38816;51.142;-0.974;2024-03-17T11:57:04;75836.81;;;-142.70;100.00
51439;BME280;38816;51.142;-0.974;2024-03-17T11:59:31;75842.72;;;-142.70;100.00
51439;BME280;38816;51.142;-0.974;2024-03-17T12:01:57;75860.47;;;-142.70;100.00
51439;BME280;38816;51.142;-0.974;2024-03-17T12:04:23;75876.22;;;-142.70;100.00
51439;BME280;38816;51.142;-0.974;2024-03-17T12:06:51;75866.38;;;-142.70;100.00
51439;BME280;38816;51.142;-0.974;2024-03-17T12:09:22;75852.59;;;-142.70;100.00
51439;BME280;38816;51.142;-0.974;2024-03-17T12:12:06;75848.66;;;-142.70;100.00
51439;BME280;38816;51.142;-0.974;2024-03-17T12:14:35;75848.66;;;-142.70;100.00
51439;BME280;38816;51.142;-0.974;2024-03-17T12:17:03;75854.56;;;-142.70;100.00
51439;BME280;38816;51.142;-0.974;2024-03-17T12:19:30;75868.34;;;-142.70;100.00
51439;BME280;38816;51.142;-0.974;2024-03-17T12:21:58;75880.19;;;-142.70;100.00
51439;BME280;38816;51.142;-0.974;2024-03-17T12:24:26;75899.88;;;-142.70;100.00
51439;BME280;38816;51.142;-0.974;2024-03-17T12:26:53;75899.88;;;-142.70;100.00
51439;BME280;38816;51.142;-0.974;2024-03-17T12:31:57;75911.72;;;-142.70;100.00
51439;BME280;38816;51.142;-0.974;2024-03-17T12:34:25;75915.66;;;-142.70;100.00
51439;BME280;38816;51.142;-0.974;2024-03-17T12:36:54;75923.53;;;-142.70;100.00
51439;BME280;38816;51.142;-0.974;2024-03-17T12:39:22;75929.44;;;-142.70;100.00
51439;BME280;38816;51.142;-0.974;2024-03-17T12:44:27;75941.28;;;-142.70;100.00
51439;BME280;38816;51.142;-0.974;2024-03-17T12:47:00;75945.22;;;-142.70;100.00
51439;BME280;38816;51.142;-0.974;2024-03-17T12:49:26;75966.88;;;-142.70;100.00
51439;BME280;38816;51.142;-0.974;2024-03-17T12:51:52;75974.78;;;-142.70;100.00
51439;BME280;38816;51.142;-0.974;2024-03-17T12:54:24;75980.69;;;-142.70;100.00